sensor_id;sensor_type;location;lat;lon;timestamp;P1;durP1;ratioP1;P2;durP2;ratioP2
31594;SDS011;18200;48.726;8.892;2022-07-10T00:02:55;5.70;;;3.53;;
31594;SDS011;18200;48.726;8.892;2022-07-10T00:06:56;5.93;;;3.70;;
31594;SDS011;18200;48.726;8.892;2022-07-10T00:10:58;6.05;;;3.97;;
31594;SDS011;18200;48.726;8.892;2022-07-10T00:14:58;4.53;;;3.55;;
31594;SDS011;18200;48.726;8.892;2022-07-10T00:18:59;7.18;;;3.50;;
31594;SDS011;18200;48.726;8.892;2022-07-10T00:23:00;4.28;;;3.60;;
31594;SDS011;18200;48.726;8.892;2022-07-10T00:27:00;6.82;;;3.38;;
31594;SDS011;18200;48.726;8.892;2022-07-10T00:31:01;6.38;;;3.85;;
31594;SDS011;18200;48.726;8.892;2022-07-10T00:35:01;6.57;;;3.95;;
31594;SDS011;18200;48.726;8.892;2022-07-10T00:39:02;4.55;;;3.65;;
31594;SDS011;18200;48.726;8.892;2022-07-10T00:43:03;4.32;;;3.88;;
31594;SDS011;18200;48.726;8.892;2022-07-10T00:47:04;3.70;;;3.40;;
31594;SDS011;18200;48.726;8.892;2022-07-10T00:51:05;5.50;;;4.03;;
31594;SDS011;18200;48.726;8.892;2022-07-10T00:55:06;4.75;;;4.05;;
31594;SDS011;18200;48.726;8.892;2022-07-10T00:59:08;5.47;;;4.13;;
31594;SDS011;18200;48.726;8.892;2022-07-10T01:03:09;6.15;;;3.80;;
31594;SDS011;18200;48.726;8.892;2022-07-10T01:07:10;4.60;;;4.13;;
31594;SDS011;18200;48.726;8.892;2022-07-10T01:11:10;4.93;;;4.05;;
31594;SDS011;18200;48.726;8.892;2022-07-10T01:15:11;5.63;;;4.07;;
31594;SDS011;18200;48.726;8.892;2022-07-10T01:19:12;5.97;;;4.00;;
31594;SDS011;18200;48.726;8.892;2022-07-10T01:23:12;11.02;;;4.97;;
31594;SDS011;18200;48.726;8.892;2022-07-10T01:27:12;7.63;;;4.18;;
31594;SDS011;18200;48.726;8.892;2022-07-10T01:31:13;5.60;;;4.20;;
31594;SDS011;18200;48.726;8.892;2022-07-10T01:35:13;5.93;;;4.40;;
31594;SDS011;18200;48.726;8.892;2022-07-10T01:39:14;9.60;;;4.63;;
31594;SDS011;18200;48.726;8.892;2022-07-10T01:43:14;4.63;;;4.18;;
31594;SDS011;18200;48.726;8.892;2022-07-10T01:47:15;5.40;;;4.43;;
31594;SDS011;18200;48.726;8.892;2022-07-10T01:51:15;4.78;;;4.38;;
31594;SDS011;18200;48.726;8.892;2022-07-10T01:55:17;6.18;;;4.78;;
31594;SDS011;18200;48.726;8.892;2022-07-10T01:59:17;5.88;;;4.50;;
31594;SDS011;18200;48.726;8.892;2022-07-10T02:03:18;5.30;;;4.32;;
31594;SDS011;18200;48.726;8.892;2022-07-10T02:07:36;5.57;;;4.22;;
31594;SDS011;18200;48.726;8.892;2022-07-10T02:11:37;5.47;;;4.97;;
31594;SDS011;18200;48.726;8.892;2022-07-10T02:15:37;6.20;;;4.82;;
31594;SDS011;18200;48.726;8.892;2022-07-10T02:19:38;6.00;;;5.18;;
31594;SDS011;18200;48.726;8.892;2022-07-10T02:23:38;8.75;;;5.97;;
31594;SDS011;18200;48.726;8.892;2022-07-10T02:27:40;7.53;;;6.18;;
31594;SDS011;18200;48.726;8.892;2022-07-10T02:31:41;5.57;;;4.93;;
31594;SDS011;18200;48.726;8.892;2022-07-10T02:35:41;8.02;;;5.43;;
31594;SDS011;18200;48.726;8.892;2022-07-10T02:39:43;9.30;;;7.18;;
31594;SDS011;18200;48.726;8.892;2022-07-10T02:43:44;12.43;;;8.82;;
31594;SDS011;18200;48.726;8.892;2022-07-10T02:48:53;15.43;;;11.43;;
31594;SDS011;18200;48.726;8.892;2022-07-10T02:52:54;18.25;;;12.15;;
31594;SDS011;18200;48.726;8.892;2022-07-10T02:56:54;18.25;;;12.32;;
31594;SDS011;18200;48.726;8.892;2022-07-10T03:00:54;16.45;;;12.63;;
31594;SDS011;18200;48.726;8.892;2022-07-10T03:04:55;18.05;;;13.35;;
31594;SDS011;18200;48.726;8.892;2022-07-10T03:08:55;18.15;;;13.15;;
31594;SDS011;18200;48.726;8.892;2022-07-10T03:12:55;19.65;;;14.18;;
31594;SDS011;18200;48.726;8.892;2022-07-10T03:16:56;16.00;;;13.05;;
31594;SDS011;18200;48.726;8.892;2022-07-10T03:20:56;16.52;;;13.35;;
31594;SDS011;18200;48.726;8.892;2022-07-10T03:24:57;18.42;;;14.02;;
31594;SDS011;18200;48.726;8.892;2022-07-10T03:28:57;18.45;;;14.63;;
31594;SDS011;18200;48.726;8.892;2022-07-10T03:32:57;15.45;;;13.18;;
31594;SDS011;18200;48.726;8.892;2022-07-10T03:36:58;21.33;;;14.30;;
31594;SDS011;18200;48.726;8.892;2022-07-10T03:40:58;18.13;;;14.63;;
31594;SDS011;18200;48.726;8.892;2022-07-10T03:44:58;19.70;;;15.35;;
31594;SDS011;18200;48.726;8.892;2022-07-10T03:48:59;19.75;;;15.07;;
31594;SDS011;18200;48.726;8.892;2022-07-10T03:52:59;21.27;;;15.85;;
31594;SDS011;18200;48.726;8.892;2022-07-10T03:57:00;22.20;;;15.18;;
31594;SDS011;18200;48.726;8.892;2022-07-10T04:01:18;17.55;;;14.85;;
31594;SDS011;18200;48.726;8.892;2022-07-10T04:05:19;19.33;;;13.77;;
31594;SDS011;18200;48.726;8.892;2022-07-10T04:09:19;21.38;;;13.40;;
31594;SDS011;18200;48.726;8.892;2022-07-10T04:13:19;21.30;;;14.10;;
31594;SDS011;18200;48.726;8.892;2022-07-10T04:17:20;22.30;;;13.73;;
31594;SDS011;18200;48.726;8.892;2022-07-10T04:21:20;17.80;;;13.05;;
31594;SDS011;18200;48.726;8.892;2022-07-10T04:25:20;15.40;;;11.88;;
31594;SDS011;18200;48.726;8.892;2022-07-10T04:29:21;20.48;;;12.32;;
31594;SDS011;18200;48.726;8.892;2022-07-10T04:33:21;17.13;;;12.05;;
31594;SDS011;18200;48.726;8.892;2022-07-10T04:37:22;17.40;;;11.20;;
31594;SDS011;18200;48.726;8.892;2022-07-10T04:41:22;12.18;;;9.90;;
31594;SDS011;18200;48.726;8.892;2022-07-10T04:45:22;14.23;;;9.35;;
31594;SDS011;18200;48.726;8.892;2022-07-10T04:49:23;13.05;;;8.18;;
31594;SDS011;18200;48.726;8.892;2022-07-10T04:53:23;13.80;;;7.57;;
31594;SDS011;18200;48.726;8.892;2022-07-10T04:57:24;9.85;;;7.20;;
31594;SDS011;18200;48.726;8.892;2022-07-10T05:01:24;10.15;;;6.68;;
31594;SDS011;18200;48.726;8.892;2022-07-10T05:05:25;11.73;;;6.80;;
31594;SDS011;18200;48.726;8.892;2022-07-10T05:09:25;15.13;;;6.43;;
31594;SDS011;18200;48.726;8.892;2022-07-10T05:13:25;11.10;;;5.88;;
31594;SDS011;18200;48.726;8.892;2022-07-10T05:17:26;7.97;;;5.55;;
31594;SDS011;18200;48.726;8.892;2022-07-10T05:21:28;9.52;;;5.60;;
31594;SDS011;18200;48.726;8.892;2022-07-10T05:25:28;7.90;;;5.05;;
31594;SDS011;18200;48.726;8.892;2022-07-10T05:29:30;10.98;;;5.43;;
31594;SDS011;18200;48.726;8.892;2022-07-10T05:33:30;10.93;;;5.15;;
31594;SDS011;18200;48.726;8.892;2022-07-10T05:37:32;13.75;;;5.03;;
31594;SDS011;18200;48.726;8.892;2022-07-10T05:41:32;10.00;;;4.70;;
31594;SDS011;18200;48.726;8.892;2022-07-10T05:45:33;8.25;;;4.68;;
31594;SDS011;18200;48.726;8.892;2022-07-10T05:49:33;9.68;;;4.57;;
31594;SDS011;18200;48.726;8.892;2022-07-10T05:53:34;11.25;;;4.38;;
31594;SDS011;18200;48.726;8.892;2022-07-10T05:57:34;6.50;;;3.58;;
31594;SDS011;18200;48.726;8.892;2022-07-10T06:01:35;9.40;;;3.80;;
31594;SDS011;18200;48.726;8.892;2022-07-10T06:05:36;6.18;;;3.17;;
31594;SDS011;18200;48.726;8.892;2022-07-10T06:09:36;6.43;;;3.42;;
31594;SDS011;18200;48.726;8.892;2022-07-10T06:13:37;6.07;;;3.35;;
31594;SDS011;18200;48.726;8.892;2022-07-10T06:17:38;9.95;;;3.20;;
31594;SDS011;18200;48.726;8.892;2022-07-10T06:21:38;10.85;;;3.42;;
31594;SDS011;18200;48.726;8.892;2022-07-10T06:25:39;7.15;;;3.20;;
31594;SDS011;18200;48.726;8.892;2022-07-10T06:29:39;8.10;;;3.20;;
31594;SDS011;18200;48.726;8.892;2022-07-10T06:33:40;5.55;;;2.90;;
31594;SDS011;18200;48.726;8.892;2022-07-10T06:37:40;10.55;;;2.90;;
31594;SDS011;18200;48.726;8.892;2022-07-10T06:41:40;6.43;;;2.53;;
31594;SDS011;18200;48.726;8.892;2022-07-10T06:45:41;7.78;;;3.00;;
31594;SDS011;18200;48.726;8.892;2022-07-10T06:49:41;6.25;;;2.40;;
31594;SDS011;18200;48.726;8.892;2022-07-10T06:53:42;6.82;;;2.13;;
31594;SDS011;18200;48.726;8.892;2022-07-10T06:57:43;6.97;;;2.85;;
31594;SDS011;18200;48.726;8.892;2022-07-10T07:01:43;6.53;;;2.40;;
31594;SDS011;18200;48.726;8.892;2022-07-10T07:05:43;6.10;;;2.78;;
31594;SDS011;18200;48.726;8.892;2022-07-10T07:09:44;8.35;;;2.20;;
31594;SDS011;18200;48.726;8.892;2022-07-10T07:13:45;8.20;;;2.20;;
31594;SDS011;18200;48.726;8.892;2022-07-10T07:17:45;4.78;;;1.85;;
31594;SDS011;18200;48.726;8.892;2022-07-10T07:22:08;6.25;;;1.90;;
31594;SDS011;18200;48.726;8.892;2022-07-10T07:26:27;6.80;;;2.22;;
31594;SDS011;18200;48.726;8.892;2022-07-10T07:30:27;5.25;;;2.20;;
31594;SDS011;18200;48.726;8.892;2022-07-10T07:34:28;6.88;;;2.03;;
31594;SDS011;18200;48.726;8.892;2022-07-10T07:38:28;9.05;;;1.98;;
31594;SDS011;18200;48.726;8.892;2022-07-10T07:42:28;5.50;;;2.00;;
31594;SDS011;18200;48.726;8.892;2022-07-10T07:46:29;7.03;;;2.20;;
31594;SDS011;18200;48.726;8.892;2022-07-10T07:50:30;6.80;;;2.10;;
31594;SDS011;18200;48.726;8.892;2022-07-10T07:54:32;5.90;;;1.85;;
31594;SDS011;18200;48.726;8.892;2022-07-10T07:58:32;9.38;;;2.13;;
31594;SDS011;18200;48.726;8.892;2022-07-10T08:02:33;8.57;;;2.15;;
31594;SDS011;18200;48.726;8.892;2022-07-10T08:06:33;5.95;;;2.40;;
31594;SDS011;18200;48.726;8.892;2022-07-10T08:10:34;8.45;;;2.00;;
31594;SDS011;18200;48.726;8.892;2022-07-10T08:14:35;5.18;;;2.13;;
31594;SDS011;18200;48.726;8.892;2022-07-10T08:18:35;6.97;;;1.70;;
31594;SDS011;18200;48.726;8.892;2022-07-10T08:22:36;9.70;;;2.67;;
31594;SDS011;18200;48.726;8.892;2022-07-10T08:26:36;6.03;;;1.83;;
31594;SDS011;18200;48.726;8.892;2022-07-10T08:30:37;8.45;;;2.15;;
31594;SDS011;18200;48.726;8.892;2022-07-10T08:34:38;12.27;;;2.50;;
31594;SDS011;18200;48.726;8.892;2022-07-10T08:38:38;5.55;;;1.95;;
31594;SDS011;18200;48.726;8.892;2022-07-10T08:42:40;6.93;;;1.90;;
31594;SDS011;18200;48.726;8.892;2022-07-10T08:46:41;5.00;;;2.30;;
31594;SDS011;18200;48.726;8.892;2022-07-10T08:50:44;7.43;;;1.98;;
31594;SDS011;18200;48.726;8.892;2022-07-10T08:54:47;9.15;;;2.00;;
31594;SDS011;18200;48.726;8.892;2022-07-10T08:58:47;6.80;;;2.38;;
31594;SDS011;18200;48.726;8.892;2022-07-10T09:02:55;7.13;;;2.47;;
31594;SDS011;18200;48.726;8.892;2022-07-10T09:06:56;6.35;;;2.58;;
31594;SDS011;18200;48.726;8.892;2022-07-10T09:15:19;8.88;;;3.30;;
31594;SDS011;18200;48.726;8.892;2022-07-10T09:19:23;7.63;;;2.55;;
31594;SDS011;18200;48.726;8.892;2022-07-10T09:23:24;9.05;;;2.25;;
31594;SDS011;18200;48.726;8.892;2022-07-10T09:27:25;8.82;;;2.55;;
31594;SDS011;18200;48.726;8.892;2022-07-10T09:31:26;6.53;;;2.90;;
31594;SDS011;18200;48.726;8.892;2022-07-10T09:35:26;4.45;;;2.40;;
31594;SDS011;18200;48.726;8.892;2022-07-10T09:44:00;9.25;;;3.92;;
31594;SDS011;18200;48.726;8.892;2022-07-10T09:48:02;9.70;;;2.90;;
31594;SDS011;18200;48.726;8.892;2022-07-10T09:52:04;4.25;;;2.25;;
31594;SDS011;18200;48.726;8.892;2022-07-10T09:56:06;4.95;;;2.55;;
31594;SDS011;18200;48.726;8.892;2022-07-10T10:00:13;8.15;;;2.88;;
31594;SDS011;18200;48.726;8.892;2022-07-10T10:04:14;4.13;;;2.60;;
31594;SDS011;18200;48.726;8.892;2022-07-10T10:08:16;5.57;;;2.33;;
31594;SDS011;18200;48.726;8.892;2022-07-10T10:12:31;8.98;;;2.30;;
31594;SDS011;18200;48.726;8.892;2022-07-10T10:16:35;5.95;;;2.33;;
31594;SDS011;18200;48.726;8.892;2022-07-10T10:20:37;7.63;;;2.78;;
31594;SDS011;18200;48.726;8.892;2022-07-10T10:24:43;7.13;;;2.50;;
31594;SDS011;18200;48.726;8.892;2022-07-10T10:28:45;8.57;;;2.78;;
31594;SDS011;18200;48.726;8.892;2022-07-10T10:32:46;8.70;;;2.65;;
31594;SDS011;18200;48.726;8.892;2022-07-10T10:36:46;6.50;;;2.45;;
31594;SDS011;18200;48.726;8.892;2022-07-10T10:40:47;5.55;;;2.60;;
31594;SDS011;18200;48.726;8.892;2022-07-10T10:44:48;9.48;;;3.60;;
31594;SDS011;18200;48.726;8.892;2022-07-10T10:49:08;5.40;;;2.75;;
31594;SDS011;18200;48.726;8.892;2022-07-10T10:53:27;4.28;;;1.92;;
31594;SDS011;18200;48.726;8.892;2022-07-10T11:01:32;6.25;;;2.10;;
31594;SDS011;18200;48.726;8.892;2022-07-10T11:09:33;6.00;;;1.90;;
31594;SDS011;18200;48.726;8.892;2022-07-10T11:13:33;5.43;;;1.98;;
31594;SDS011;18200;48.726;8.892;2022-07-10T11:17:34;8.25;;;2.20;;
31594;SDS011;18200;48.726;8.892;2022-07-10T11:21:39;8.45;;;1.50;;
31594;SDS011;18200;48.726;8.892;2022-07-10T11:30:11;5.65;;;1.90;;
31594;SDS011;18200;48.726;8.892;2022-07-10T11:34:12;4.90;;;1.75;;
31594;SDS011;18200;48.726;8.892;2022-07-10T11:38:12;4.40;;;1.80;;
31594;SDS011;18200;48.726;8.892;2022-07-10T11:42:12;6.00;;;1.75;;
31594;SDS011;18200;48.726;8.892;2022-07-10T11:46:13;3.50;;;1.17;;
31594;SDS011;18200;48.726;8.892;2022-07-10T11:50:14;3.10;;;1.25;;
31594;SDS011;18200;48.726;8.892;2022-07-10T11:54:15;6.57;;;1.67;;
31594;SDS011;18200;48.726;8.892;2022-07-10T11:58:18;3.10;;;1.23;;
31594;SDS011;18200;48.726;8.892;2022-07-10T12:02:21;6.30;;;1.65;;
31594;SDS011;18200;48.726;8.892;2022-07-10T12:06:22;4.63;;;1.42;;
31594;SDS011;18200;48.726;8.892;2022-07-10T12:10:30;6.13;;;1.23;;
31594;SDS011;18200;48.726;8.892;2022-07-10T12:14:32;4.63;;;0.98;;
31594;SDS011;18200;48.726;8.892;2022-07-10T12:18:33;3.10;;;0.93;;
31594;SDS011;18200;48.726;8.892;2022-07-10T12:22:34;4.63;;;1.20;;
31594;SDS011;18200;48.726;8.892;2022-07-10T12:26:35;3.67;;;1.00;;
31594;SDS011;18200;48.726;8.892;2022-07-10T12:30:44;3.30;;;1.00;;
31594;SDS011;18200;48.726;8.892;2022-07-10T12:34:46;3.90;;;0.95;;
31594;SDS011;18200;48.726;8.892;2022-07-10T12:38:54;1.50;;;0.75;;
31594;SDS011;18200;48.726;8.892;2022-07-10T12:43:01;3.05;;;0.95;;
31594;SDS011;18200;48.726;8.892;2022-07-10T12:47:09;4.47;;;0.90;;
31594;SDS011;18200;48.726;8.892;2022-07-10T12:51:25;4.00;;;0.77;;
31594;SDS011;18200;48.726;8.892;2022-07-10T12:59:34;3.95;;;0.77;;
31594;SDS011;18200;48.726;8.892;2022-07-10T13:03:36;5.03;;;0.98;;
31594;SDS011;18200;48.726;8.892;2022-07-10T13:07:36;3.70;;;1.00;;
31594;SDS011;18200;48.726;8.892;2022-07-10T13:11:37;3.25;;;0.90;;
31594;SDS011;18200;48.726;8.892;2022-07-10T13:15:37;2.20;;;0.82;;
31594;SDS011;18200;48.726;8.892;2022-07-10T13:19:45;2.35;;;0.90;;
31594;SDS011;18200;48.726;8.892;2022-07-10T13:23:45;5.78;;;1.00;;
31594;SDS011;18200;48.726;8.892;2022-07-10T13:27:47;4.82;;;0.95;;
31594;SDS011;18200;48.726;8.892;2022-07-10T13:31:48;3.35;;;1.00;;
31594;SDS011;18200;48.726;8.892;2022-07-10T13:35:48;4.35;;;1.10;;
31594;SDS011;18200;48.726;8.892;2022-07-10T13:39:49;3.95;;;1.10;;
31594;SDS011;18200;48.726;8.892;2022-07-10T13:43:49;4.90;;;1.20;;
31594;SDS011;18200;48.726;8.892;2022-07-10T13:47:49;2.80;;;0.90;;
31594;SDS011;18200;48.726;8.892;2022-07-10T13:51:50;4.28;;;0.90;;
31594;SDS011;18200;48.726;8.892;2022-07-10T13:55:50;3.45;;;0.85;;
31594;SDS011;18200;48.726;8.892;2022-07-10T13:59:52;4.57;;;0.98;;
31594;SDS011;18200;48.726;8.892;2022-07-10T14:03:53;3.47;;;0.95;;
31594;SDS011;18200;48.726;8.892;2022-07-10T14:07:54;5.68;;;1.10;;
31594;SDS011;18200;48.726;8.892;2022-07-10T14:11:55;6.15;;;0.90;;
31594;SDS011;18200;48.726;8.892;2022-07-10T14:15:55;5.68;;;1.33;;
31594;SDS011;18200;48.726;8.892;2022-07-10T14:19:56;4.05;;;0.70;;
31594;SDS011;18200;48.726;8.892;2022-07-10T14:23:56;5.25;;;1.17;;
31594;SDS011;18200;48.726;8.892;2022-07-10T14:27:56;3.53;;;1.13;;
31594;SDS011;18200;48.726;8.892;2022-07-10T14:31:57;4.28;;;0.95;;
31594;SDS011;18200;48.726;8.892;2022-07-10T14:35:58;3.35;;;0.88;;
31594;SDS011;18200;48.726;8.892;2022-07-10T14:39:59;1.88;;;0.60;;
31594;SDS011;18200;48.726;8.892;2022-07-10T14:43:59;4.60;;;1.15;;
31594;SDS011;18200;48.726;8.892;2022-07-10T14:47:59;7.32;;;1.25;;
31594;SDS011;18200;48.726;8.892;2022-07-10T14:52:00;2.60;;;0.60;;
31594;SDS011;18200;48.726;8.892;2022-07-10T14:56:01;4.15;;;0.82;;
31594;SDS011;18200;48.726;8.892;2022-07-10T15:00:03;3.08;;;0.95;;
31594;SDS011;18200;48.726;8.892;2022-07-10T15:04:04;3.47;;;0.82;;
31594;SDS011;18200;48.726;8.892;2022-07-10T15:08:04;4.53;;;0.90;;
31594;SDS011;18200;48.726;8.892;2022-07-10T15:12:05;3.60;;;0.90;;
31594;SDS011;18200;48.726;8.892;2022-07-10T15:16:06;3.47;;;0.90;;
31594;SDS011;18200;48.726;8.892;2022-07-10T15:20:08;3.13;;;0.95;;
31594;SDS011;18200;48.726;8.892;2022-07-10T15:24:08;3.60;;;1.00;;
31594;SDS011;18200;48.726;8.892;2022-07-10T15:28:09;3.22;;;0.95;;
31594;SDS011;18200;48.726;8.892;2022-07-10T15:32:10;4.75;;;0.90;;
31594;SDS011;18200;48.726;8.892;2022-07-10T15:36:12;4.85;;;0.80;;
31594;SDS011;18200;48.726;8.892;2022-07-10T15:40:13;2.60;;;0.80;;
31594;SDS011;18200;48.726;8.892;2022-07-10T15:44:14;5.18;;;1.10;;
31594;SDS011;18200;48.726;8.892;2022-07-10T15:48:15;3.45;;;0.95;;
31594;SDS011;18200;48.726;8.892;2022-07-10T15:52:15;3.25;;;1.10;;
31594;SDS011;18200;48.726;8.892;2022-07-10T15:56:16;3.78;;;1.00;;
31594;SDS011;18200;48.726;8.892;2022-07-10T16:00:17;6.75;;;1.50;;
31594;SDS011;18200;48.726;8.892;2022-07-10T16:04:17;3.75;;;0.82;;
31594;SDS011;18200;48.726;8.892;2022-07-10T16:08:18;3.25;;;0.98;;
31594;SDS011;18200;48.726;8.892;2022-07-10T16:12:21;4.25;;;1.20;;
31594;SDS011;18200;48.726;8.892;2022-07-10T16:16:21;2.70;;;0.98;;
31594;SDS011;18200;48.726;8.892;2022-07-10T16:20:22;4.32;;;1.05;;
31594;SDS011;18200;48.726;8.892;2022-07-10T16:24:22;4.13;;;1.05;;
31594;SDS011;18200;48.726;8.892;2022-07-10T16:28:22;6.13;;;1.73;;
31594;SDS011;18200;48.726;8.892;2022-07-10T16:32:23;6.93;;;1.67;;
31594;SDS011;18200;48.726;8.892;2022-07-10T16:36:23;4.50;;;1.10;;
31594;SDS011;18200;48.726;8.892;2022-07-10T16:40:25;4.63;;;1.10;;
31594;SDS011;18200;48.726;8.892;2022-07-10T16:44:25;6.75;;;1.50;;
31594;SDS011;18200;48.726;8.892;2022-07-10T16:48:26;4.70;;;1.20;;
31594;SDS011;18200;48.726;8.892;2022-07-10T16:52:27;5.60;;;1.40;;
31594;SDS011;18200;48.726;8.892;2022-07-10T16:56:27;4.28;;;1.40;;
31594;SDS011;18200;48.726;8.892;2022-07-10T17:00:27;2.05;;;1.20;;
31594;SDS011;18200;48.726;8.892;2022-07-10T17:04:28;7.65;;;1.30;;
31594;SDS011;18200;48.726;8.892;2022-07-10T17:08:40;8.10;;;1.35;;
31594;SDS011;18200;48.726;8.892;2022-07-10T17:12:41;2.47;;;0.93;;
31594;SDS011;18200;48.726;8.892;2022-07-10T17:16:41;2.65;;;1.05;;
31594;SDS011;18200;48.726;8.892;2022-07-10T17:20:42;4.88;;;1.05;;
31594;SDS011;18200;48.726;8.892;2022-07-10T17:24:42;5.13;;;1.20;;
31594;SDS011;18200;48.726;8.892;2022-07-10T17:28:43;6.40;;;1.23;;
31594;SDS011;18200;48.726;8.892;2022-07-10T17:32:43;4.57;;;1.38;;
31594;SDS011;18200;48.726;8.892;2022-07-10T17:36:43;4.63;;;1.00;;
31594;SDS011;18200;48.726;8.892;2022-07-10T17:40:44;5.65;;;2.13;;
31594;SDS011;18200;48.726;8.892;2022-07-10T17:44:45;4.03;;;2.22;;
31594;SDS011;18200;48.726;8.892;2022-07-10T17:48:46;3.80;;;1.27;;
31594;SDS011;18200;48.726;8.892;2022-07-10T17:52:46;4.10;;;1.20;;
31594;SDS011;18200;48.726;8.892;2022-07-10T17:56:47;7.07;;;1.25;;
31594;SDS011;18200;48.726;8.892;2022-07-10T18:00:47;3.65;;;1.10;;
31594;SDS011;18200;48.726;8.892;2022-07-10T18:04:47;4.45;;;1.45;;
31594;SDS011;18200;48.726;8.892;2022-07-10T18:08:48;4.50;;;1.20;;
31594;SDS011;18200;48.726;8.892;2022-07-10T18:12:48;2.17;;;1.15;;
31594;SDS011;18200;48.726;8.892;2022-07-10T18:16:49;5.40;;;2.20;;
31594;SDS011;18200;48.726;8.892;2022-07-10T18:20:49;5.43;;;1.48;;
31594;SDS011;18200;48.726;8.892;2022-07-10T18:24:50;3.85;;;1.20;;
31594;SDS011;18200;48.726;8.892;2022-07-10T18:28:50;7.90;;;1.60;;
31594;SDS011;18200;48.726;8.892;2022-07-10T18:32:51;8.25;;;1.65;;
31594;SDS011;18200;48.726;8.892;2022-07-10T18:37:10;3.92;;;1.63;;
31594;SDS011;18200;48.726;8.892;2022-07-10T18:41:12;8.35;;;1.63;;
31594;SDS011;18200;48.726;8.892;2022-07-10T18:45:12;3.47;;;1.17;;
31594;SDS011;18200;48.726;8.892;2022-07-10T18:49:13;4.88;;;1.20;;
31594;SDS011;18200;48.726;8.892;2022-07-10T18:53:13;6.50;;;1.33;;
31594;SDS011;18200;48.726;8.892;2022-07-10T18:57:13;5.70;;;1.65;;
31594;SDS011;18200;48.726;8.892;2022-07-10T19:01:14;5.60;;;1.20;;
31594;SDS011;18200;48.726;8.892;2022-07-10T19:05:14;4.65;;;1.77;;
31594;SDS011;18200;48.726;8.892;2022-07-10T19:09:15;3.78;;;1.38;;
31594;SDS011;18200;48.726;8.892;2022-07-10T19:13:15;3.90;;;1.27;;
31594;SDS011;18200;48.726;8.892;2022-07-10T19:17:15;3.40;;;1.17;;
31594;SDS011;18200;48.726;8.892;2022-07-10T19:21:16;4.53;;;1.75;;
31594;SDS011;18200;48.726;8.892;2022-07-10T19:25:17;4.18;;;1.10;;
31594;SDS011;18200;48.726;8.892;2022-07-10T19:29:17;3.47;;;1.10;;
31594;SDS011;18200;48.726;8.892;2022-07-10T19:33:17;3.10;;;1.45;;
31594;SDS011;18200;48.726;8.892;2022-07-10T19:37:18;4.32;;;1.30;;
31594;SDS011;18200;48.726;8.892;2022-07-10T19:41:18;5.45;;;1.40;;
31594;SDS011;18200;48.726;8.892;2022-07-10T19:45:19;5.78;;;1.15;;
31594;SDS011;18200;48.726;8.892;2022-07-10T19:49:22;3.78;;;1.05;;
31594;SDS011;18200;48.726;8.892;2022-07-10T19:53:24;1.63;;;1.00;;
31594;SDS011;18200;48.726;8.892;2022-07-10T19:57:25;2.60;;;1.10;;
31594;SDS011;18200;48.726;8.892;2022-07-10T20:01:26;4.90;;;1.70;;
31594;SDS011;18200;48.726;8.892;2022-07-10T20:05:27;2.95;;;1.50;;
31594;SDS011;18200;48.726;8.892;2022-07-10T20:09:28;4.18;;;1.58;;
31594;SDS011;18200;48.726;8.892;2022-07-10T20:13:28;5.45;;;1.42;;
31594;SDS011;18200;48.726;8.892;2022-07-10T20:17:29;4.25;;;1.23;;
31594;SDS011;18200;48.726;8.892;2022-07-10T20:21:30;1.88;;;1.20;;
31594;SDS011;18200;48.726;8.892;2022-07-10T20:25:30;2.05;;;1.35;;
31594;SDS011;18200;48.726;8.892;2022-07-10T20:29:31;9.82;;;2.05;;
31594;SDS011;18200;48.726;8.892;2022-07-10T20:33:31;8.77;;;1.55;;
31594;SDS011;18200;48.726;8.892;2022-07-10T20:37:32;2.35;;;1.20;;
31594;SDS011;18200;48.726;8.892;2022-07-10T20:41:42;5.40;;;1.55;;
31594;SDS011;18200;48.726;8.892;2022-07-10T20:45:42;2.10;;;1.30;;
31594;SDS011;18200;48.726;8.892;2022-07-10T20:49:43;4.05;;;1.30;;
31594;SDS011;18200;48.726;8.892;2022-07-10T20:53:43;6.55;;;1.65;;
31594;SDS011;18200;48.726;8.892;2022-07-10T20:57:44;2.88;;;1.50;;
31594;SDS011;18200;48.726;8.892;2022-07-10T21:01:44;3.10;;;1.52;;
31594;SDS011;18200;48.726;8.892;2022-07-10T21:05:44;2.92;;;1.17;;
31594;SDS011;18200;48.726;8.892;2022-07-10T21:09:45;3.53;;;1.13;;
31594;SDS011;18200;48.726;8.892;2022-07-10T21:13:47;5.03;;;1.63;;
31594;SDS011;18200;48.726;8.892;2022-07-10T21:17:47;2.72;;;1.23;;
31594;SDS011;18200;48.726;8.892;2022-07-10T21:21:47;3.70;;;1.70;;
31594;SDS011;18200;48.726;8.892;2022-07-10T21:25:48;3.47;;;1.30;;
31594;SDS011;18200;48.726;8.892;2022-07-10T21:29:48;3.00;;;1.42;;
31594;SDS011;18200;48.726;8.892;2022-07-10T21:33:49;2.40;;;1.17;;
31594;SDS011;18200;48.726;8.892;2022-07-10T21:37:49;2.70;;;1.30;;
31594;SDS011;18200;48.726;8.892;2022-07-10T21:41:49;1.60;;;1.13;;
31594;SDS011;18200;48.726;8.892;2022-07-10T21:45:50;6.13;;;1.92;;
31594;SDS011;18200;48.726;8.892;2022-07-10T21:49:50;2.53;;;1.27;;
31594;SDS011;18200;48.726;8.892;2022-07-10T21:53:51;4.47;;;1.45;;
31594;SDS011;18200;48.726;8.892;2022-07-10T21:57:52;7.18;;;1.70;;
31594;SDS011;18200;48.726;8.892;2022-07-10T22:01:53;3.72;;;1.30;;
31594;SDS011;18200;48.726;8.892;2022-07-10T22:05:53;3.20;;;1.48;;
31594;SDS011;18200;48.726;8.892;2022-07-10T22:09:53;2.25;;;1.10;;
31594;SDS011;18200;48.726;8.892;2022-07-10T22:13:54;2.63;;;1.30;;
31594;SDS011;18200;48.726;8.892;2022-07-10T22:17:54;0.95;;;0.88;;
31594;SDS011;18200;48.726;8.892;2022-07-10T22:21:55;2.88;;;1.40;;
31594;SDS011;18200;48.726;8.892;2022-07-10T22:25:55;4.55;;;1.88;;
31594;SDS011;18200;48.726;8.892;2022-07-10T22:29:56;4.63;;;1.40;;
31594;SDS011;18200;48.726;8.892;2022-07-10T22:33:57;4.55;;;1.60;;
31594;SDS011;18200;48.726;8.892;2022-07-10T22:37:58;3.10;;;1.20;;
31594;SDS011;18200;48.726;8.892;2022-07-10T22:41:58;3.05;;;1.52;;
31594;SDS011;18200;48.726;8.892;2022-07-10T22:45:59;3.42;;;1.20;;
31594;SDS011;18200;48.726;8.892;2022-07-10T22:49:59;2.80;;;1.50;;
31594;SDS011;18200;48.726;8.892;2022-07-10T22:54:00;1.33;;;1.13;;
31594;SDS011;18200;48.726;8.892;2022-07-10T22:58:00;4.25;;;1.90;;
31594;SDS011;18200;48.726;8.892;2022-07-10T23:02:01;2.38;;;1.38;;
31594;SDS011;18200;48.726;8.892;2022-07-10T23:06:01;3.92;;;1.75;;
31594;SDS011;18200;48.726;8.892;2022-07-10T23:10:02;1.88;;;1.27;;
31594;SDS011;18200;48.726;8.892;2022-07-10T23:14:03;1.60;;;1.23;;
31594;SDS011;18200;48.726;8.892;2022-07-10T23:18:03;4.43;;;1.60;;
31594;SDS011;18200;48.726;8.892;2022-07-10T23:22:04;3.70;;;1.40;;
31594;SDS011;18200;48.726;8.892;2022-07-10T23:26:05;4.22;;;1.40;;
31594;SDS011;18200;48.726;8.892;2022-07-10T23:30:06;8.75;;;1.70;;
31594;SDS011;18200;48.726;8.892;2022-07-10T23:34:06;2.75;;;1.42;;
31594;SDS011;18200;48.726;8.892;2022-07-10T23:38:07;4.07;;;1.70;;
31594;SDS011;18200;48.726;8.892;2022-07-10T23:42:08;2.75;;;1.50;;
31594;SDS011;18200;48.726;8.892;2022-07-10T23:46:08;2.60;;;1.33;;
31594;SDS011;18200;48.726;8.892;2022-07-10T23:50:09;2.08;;;1.30;;
31594;SDS011;18200;48.726;8.892;2022-07-10T23:54:11;3.58;;;1.40;;
31594;SDS011;18200;48.726;8.892;2022-07-10T23:58:11;3.65;;;1.48;;
